Data for 08/01/2005

Time Sea-Level Adjusted Pressure Absolute Pressure Temperature Relative Humidity Dew Point   
(mb) (inHg) (mb) (inHg) (C) (F) (%) (C) (F)
00:05 1022 30.18 851 25.13 17.6 63.6 60 9.9 49.9
00:10 1022 30.18 851 25.13 17.6 63.6 61 10.1 50.2
00:15 1022 30.18 851 25.13 17.5 63.5 61 9.9 49.8
00:20 1022 30.18 851 25.13 17.3 63.2 61 9.9 49.8
00:25 1022 30.18 851 25.13 17.3 63.2 65 10.7 51.2
00:30 1022 30.18 851 25.13 17.4 63.2 60 9.6 49.2
00:35 1022 30.18 851 25.13 17.5 63.4 60 9.6 49.4
00:40 1022 30.18 851 25.13 17.6 63.6 60 9.7 49.5
00:45 1022 30.18 851 25.13 17.7 63.8 60 9.9 49.8
00:50 1022 30.18 851 25.13 17.7 63.9 60 9.9 49.8
00:55 1022 30.18 851 25.13 17.6 63.6 61 10 50
01:00 1022 30.18 851 25.13 17.4 63.3 61 9.8 49.6
01:05 1022 30.18 851 25.13 17.3 63.2 61 9.8 49.6
01:10 1022 30.18 851 25.13 17.2 62.9 63 10.1 50.2
01:15 1022 30.18 851 25.13 16.9 62.5 62 9.7 49.5
01:20 1022 30.18 851 25.13 16.8 62.3 62 9.5 49.2
01:25 1022 30.18 851 25.13 16.9 62.4 62 9.6 49.2
01:30 1022 30.18 851 25.13 16.3 61.4 66 10.1 50.1
01:35 1022 30.18 851 25.13 15.9 60.7 67 9.9 49.8
01:40 1022 30.18 851 25.13 16 60.7 67 9.8 49.7
01:45 1022 30.18 851 25.13 15.7 60.2 66 9.5 49.1
01:50 1022 30.18 851 25.13 15.9 60.6 66 9.6 49.2
01:55 1021 30.15 851 25.13 15.8 60.4 67 9.7 49.5
02:00 1021 30.15 851 25.13 15.5 59.8 67 9.4 48.9
02:05 1021 30.15 851 25.13 15.7 60.3 66 9.4 48.8
02:10 1021 30.15 851 25.13 15.6 60 66 9.3 48.7
02:15 1021 30.15 851 25.13 15.6 60.1 65 9.2 48.6
02:20 1021 30.15 851 25.13 15.9 60.6 64 9.1 48.4
02:25 1021 30.15 851 25.13 16.1 61 63 9.2 48.5
02:30 1021 30.15 851 25.13 15.8 60.4 65 9.4 48.9
02:35 1021 30.15 851 25.13 15.6 60.1 64 9 48.2
02:40 1021 30.15 851 25.13 15.9 60.7 64 9.1 48.4
02:45 1021 30.15 851 25.13 15.9 60.6 66 9.7 49.4
02:50 1021 30.15 851 25.13 16 60.8 63 9.1 48.4
02:55 1021 30.15 851 25.13 15.8 60.5 64 9 48.2
03:00 1021 30.15 851 25.13 16 60.7 63 9 48.2
03:05 1021 30.15 850 25.1 16.1 61 63 9.1 48.3
03:10 1021 30.15 850 25.1 16.1 60.9 63 9.1 48.3
03:15 1021 30.15 850 25.1 16.1 60.9 63 9.2 48.6
03:20 1021 30.15 850 25.1 15.9 60.6 64 9.2 48.6
03:25 1021 30.15 850 25.1 15.7 60.2 65 9.2 48.5
03:30 1021 30.15 850 25.1 15.5 59.9 65 9 48.1
03:35 1021 30.15 850 25.1 15.8 60.4 64 9 48.2
03:40 1021 30.15 850 25.1 15.7 60.3 64 9.1 48.4
03:45 1021 30.15 850 25.1 15.5 60 65 9.1 48.4
03:50 1021 30.15 850 25.1 15.5 59.9 65 9.1 48.5
03:55 1021 30.15 850 25.1 15.3 59.6 67 9.2 48.6
04:00 1021 30.15 850 25.1 15.2 59.4 68 9.5 49
04:05 1021 30.15 850 25.1 15 58.9 68 9.2 48.5
04:10 1021 30.15 850 25.1 14.8 58.6 68 9.1 48.4
04:15 1021 30.15 850 25.1 14.9 58.8 67 8.8 47.9
04:20 1021 30.15 850 25.1 15.3 59.5 67 9.2 48.6
04:25 1021 30.15 850 25.1 15.5 59.9 65 9 48.2
04:30 1021 30.15 850 25.1 15.2 59.4 67 9.1 48.4
04:35 1021 30.15 850 25.1 15 59 67 9 48.2
04:40 1021 30.15 850 25.1 15.2 59.4 65 8.7 47.7
04:45 1021 30.15 850 25.1 15.5 59.9 65 8.9 48.1
04:50 1021 30.15 850 25.1 15.5 59.9 66 9.2 48.5
04:55 1021 30.15 850 25.1 15.2 59.3 66 8.9 48
05:00 1021 30.15 850 25.1 15.2 59.3 66 9 48.3
05:05 1021 30.15 850 25.1 14.9 58.8 71 9.7 49.4
05:10 1021 30.15 850 25.1 14.7 58.5 68 9 48.2
05:15 1021 30.15 850 25.1 14.9 58.8 68 9 48.2
05:20 1021 30.15 850 25.1 14.9 58.8 67 8.8 47.9
05:25 1021 30.15 850 25.1 15.4 59.7 65 9 48.1
05:30 1021 30.15 850 25.1 15.2 59.4 68 9.3 48.7
05:35 1021 30.15 850 25.1 14.5 58.1 69 9 48.2
05:40 1021 30.15 850 25.1 14.2 57.6 71 9.1 48.3
05:45 1021 30.15 850 25.1 14 57.1 72 9 48.2
05:50 1021 30.15 850 25.1 13.8 56.8 72 8.8 47.9
05:55 1021 30.15 850 25.1 14.4 57.9 67 8.4 47.1
06:00 1021 30.15 850 25.1 15.5 59.8 63 8.6 47.5
06:05 1021 30.15 850 25.1 15.5 59.8 66 9.2 48.6
06:10 1021 30.15 850 25.1 14.6 58.2 73 9.8 49.7
06:15 1021 30.15 850 25.1 14.4 58 69 8.8 47.8
06:20 1021 30.15 850 25.1 14.6 58.2 68 8.8 47.8
06:25 1021 30.15 850 25.1 14.7 58.5 68 8.8 47.9
06:30 1021 30.15 850 25.1 14.8 58.7 67 8.8 47.8
06:35 1021 30.15 850 25.1 14.4 57.9 69 8.9 48
06:40 1021 30.15 850 25.1 14.5 58.1 67 8.6 47.5
06:45 1021 30.15 850 25.1 14.8 58.6 67 8.7 47.7
06:50 1021 30.15 850 25.1 15 59 66 8.7 47.6
06:55 1021 30.15 851 25.13 15.1 59.1 67 9 48.2
07:00 1021 30.15 850 25.1 14.9 58.7 67 8.9 47.9
07:05 1021 30.15 850 25.1 15.2 59.3 65 8.7 47.7
07:10 1021 30.15 850 25.1 15.6 60 66 9.4 48.8
07:15 1021 30.15 851 25.13 15.5 59.9 65 9 48.2
07:20 1021 30.15 851 25.13 15.4 59.6 66 9.1 48.4
07:25 1021 30.15 851 25.13 15.1 59.1 69 9.5 49.1
07:30 1021 30.15 851 25.13 15 59.1 67 9.1 48.3
07:35 1021 30.15 851 25.13 15.5 59.9 65 9 48.2
07:40 1021 30.15 851 25.13 16 60.7 66 9.7 49.5
07:45 1021 30.15 851 25.13 16.4 61.6 64 9.6 49.3
07:50 1021 30.15 851 25.13 16.8 62.2 63 9.7 49.5
07:55 1021 30.15 851 25.13 17.3 63.2 62 10 50
08:00 1021 30.15 851 25.13 18 64.4 60 10.1 50.2
08:05 1021 30.15 851 25.13 18.3 64.9 59 10.3 50.5
08:10 1021 30.15 851 25.13 18.6 65.4 63 11.5 52.8
08:15 1021 30.15 851 25.13 18.6 65.5 59 10.6 51.2
08:20 1021 30.15 851 25.13 18.4 65.2 59 10.3 50.6
08:25 1021 30.15 851 25.13 18.5 65.4 63 11.5 52.8
08:30 1021 30.15 851 25.13 19.1 66.4 59 11 51.8
08:35 1021 30.15 850 25.1 19.1 66.4 58 10.8 51.4
08:40 1021 30.15 850 25.1 19.2 66.6 53 9.5 49
08:45 1021 30.15 850 25.1 19.1 66.4 56 10.2 50.4
08:50 1021 30.15 850 25.1 19.9 67.8 53 10 50.1
08:55 1021 30.15 850 25.1 20.5 69 51 10 50.1
09:00 1021 30.15 850 25.1 21.1 69.9 49 10 50
09:05 1021 30.15 850 25.1 21.7 71 47 10.2 50.3
09:10 1021 30.15 850 25.1 21.7 71.1 50 10.9 51.6
09:15 1021 30.15 850 25.1 22 71.5 47 10.2 50.3
09:20 1021 30.15 850 25.1 22.5 72.5 45 10.2 50.4
09:25 1021 30.15 850 25.1 22.6 72.6 46 10.4 50.8
09:30 1021 30.15 850 25.1 22.7 72.8 45 10.3 50.5
09:35 1021 30.15 850 25.1 23.1 73.5 44 10.3 50.5
09:40 1021 30.15 850 25.1 23.4 74.1 44 10.5 50.9
09:45 1021 30.15 850 25.1 23.8 74.9 43 10.6 51.1
09:50 1021 30.15 850 25.1 23.5 74.2 42 10 50
09:55 1021 30.15 850 25.1 23.2 73.7 45 10.7 51.3
10:00 1021 30.15 850 25.1 23.6 74.4 42 9.9 49.9
10:05 1021 30.15 850 25.1 23.8 74.9 42 10.2 50.3
10:10 1021 30.15 850 25.1 24 75.2 43 10.8 51.5
10:15 1021 30.15 850 25.1 23.8 74.9 41 10 50
10:20 1021 30.15 850 25.1 24.9 76.9 39 10.2 50.4
10:25 1021 30.15 850 25.1 24.9 76.7 41 10.8 51.5
10:30 1021 30.15 850 25.1 24.1 75.4 40 10 50.1
10:35 1020 30.12 850 25.1 23.8 74.9 40 9.8 49.7
10:40 1020 30.12 850 25.1 24.1 75.4 40 9.7 49.5
10:45 1020 30.12 850 25.1 25.2 77.3 39 10.3 50.6
10:50 1020 30.12 850 25.1 25 77 39 10.4 50.7
10:55 1020 30.12 850 25.1 25 76.9 38 9.7 49.5
11:00 1020 30.12 850 25.1 24.9 76.9 38 9.9 49.8
11:05 1020 30.12 850 25.1 25.3 77.6 39 10.6 51.1
11:10 1020 30.12 850 25.1 26.2 79.1 36 10.2 50.4
11:15 1020 30.12 850 25.1 27 80.6 33 9.5 49.1
11:20 1020 30.12 850 25.1 26.7 80.1 36 10.7 51.3
11:25 1020 30.12 849 25.07 27 80.6 32 9.3 48.7
11:30 1020 30.12 849 25.07 27.5 81.6 32 9.7 49.4
11:35 1020 30.12 849 25.07 27.2 80.9 33 9.8 49.7
11:40 1020 30.12 849 25.07 27.6 81.6 33 10 49.9
11:45 1020 30.12 849 25.07 27.3 81.2 33 9.7 49.5
11:50 1020 30.12 849 25.07 27.8 82 33 10.2 50.3
11:55 1020 30.12 849 25.07 27.7 81.9 32 9.6 49.3
12:00 1020 30.12 849 25.07 28.3 82.9 30 9.4 48.9
12:05 1020 30.12 849 25.07 28.5 83.3 30 9.6 49.3
12:10 1020 30.12 849 25.07 29 84.1 29 9.3 48.8
12:15 1020 30.12 849 25.07 29.4 84.9 28 9.4 48.9
12:20 1020 30.12 849 25.07 29.3 84.8 29 9.5 49.2
12:25 1020 30.12 849 25.07 29.9 85.9 27 9.1 48.4
12:30 1020 30.12 849 25.07 30.1 86.2 26 8.6 47.4
12:35 1020 30.12 849 25.07 29.7 85.4 27 8.9 48.1
12:40 1020 30.12 849 25.07 30 86 27 9.1 48.4
12:45 1019 30.09 849 25.07 30.4 86.7 26 9.3 48.7
12:50 1019 30.09 849 25.07 30.3 86.5 26 8.9 48
12:55 1019 30.09 849 25.07 30.3 86.5 27 9.4 49
13:00 1019 30.09 849 25.07 29.6 85.3 27 8.8 47.8
13:05 1019 30.09 848 25.04 29.5 85.1 27 8.9 48
13:10 1019 30.09 848 25.04 29.6 85.3 27 9.1 48.4
13:15 1019 30.09 848 25.04 30.4 86.7 26 8.9 48
13:20 1019 30.09 848 25.04 30.7 87.3 25 8.9 48
13:25 1019 30.09 848 25.04 30.4 86.6 26 9.3 48.8
13:30 1019 30.09 848 25.04 30.1 86.1 26 8.8 47.9
13:35 1019 30.09 848 25.04 30.6 87 26 9.2 48.6
13:40 1019 30.09 848 25.04 30.1 86.2 26 9 48.2
13:45 1019 30.09 848 25.04 29.2 84.6 28 9.2 48.5
13:50 1019 30.09 848 25.04 28.7 83.7 29 9.1 48.3
13:55 1019 30.09 848 25.04 28.6 83.6 29 9.3 48.8
14:00 1019 30.09 848 25.04 28.6 83.4 30 9.4 49
14:05 1019 30.09 848 25.04 28.5 83.2 29 9.2 48.5
14:10 1019 30.09 848 25.04 28.3 82.9 29 8.9 48.1
14:15 1019 30.09 848 25.04 28.2 82.7 29 8.8 47.9
14:20 1019 30.09 848 25.04 27.9 82.2 29 8.7 47.6
14:25 1019 30.09 848 25.04 27.7 81.8 29 8.3 47
14:30 1019 30.09 848 25.04 28 82.4 29 8.5 47.3
14:35 1019 30.09 848 25.04 28.2 82.7 27 7.9 46.3
14:40 1019 30.09 848 25.04 27.8 82 41 13.7 56.6
14:45 1019 30.09 848 25.04 26.8 80.2 38 11.7 53.1
14:50 1019 30.09 848 25.04 26.9 80.4 33 9.8 49.6
14:55 1019 30.09 848 25.04 27.2 80.9 30 8.3 47
15:00 1019 30.09 848 25.04 27.1 80.7 29 8 46.3
15:05 1019 30.09 848 25.04 26.2 79.1 31 8 46.4
15:10 1019 30.09 848 25.04 26.1 79 29 6.8 44.2
15:15 1019 30.09 848 25.04 26.5 79.7 27 6.1 43.1
15:20 1019 30.09 848 25.04 27.4 81.3 26 6.5 43.8
15:25 1019 30.09 848 25.04 27.8 82 24 5.8 42.4
15:30 1019 30.09 848 25.04 28.1 82.7 25 6.6 43.9
15:35 1019 30.09 848 25.04 29 84.3 26 7.9 46.1
15:40 1019 30.09 848 25.04 28.8 83.8 23 6 42.9
15:45 1018 30.06 848 25.04 28.4 83.1 24 6.3 43.3
15:50 1018 30.06 848 25.04 28.6 83.4 23 5.6 42.1
15:55 1018 30.06 848 25.04 29.5 85.2 21 5.1 41.2
16:00 1018 30.06 848 25.04 29.7 85.4 21 5.2 41.3
16:05 1018 30.06 848 25.04 28.8 83.9 20 4.3 39.7
16:10 1018 30.06 847 25.01 29.1 84.4 22 5.3 41.6
16:15 1018 30.06 847 25.01 28.6 83.4 23 5.5 41.9
16:20 1018 30.06 847 25.01 28.5 83.3 22 5.3 41.5
16:25 1018 30.06 847 25.01 28.6 83.4 23 5.8 42.4
16:30 1018 30.06 847 25.01 28.9 83.9 24 6.5 43.7
16:35 1018 30.06 847 25.01 28.5 83.3 24 6.3 43.3
16:40 1018 30.06 847 25.01 28.5 83.2 23 5.9 42.7
16:45 1018 30.06 847 25.01 28.5 83.2 25 6.8 44.2
16:50 1018 30.06 848 25.04 28.3 83 24 6 42.8
16:55 1019 30.09 848 25.04 28.1 82.5 28 8.3 47
17:00 1019 30.09 848 25.04 26.4 79.6 34 9.7 49.4
17:05 1019 30.09 848 25.04 24.8 76.6 41 10.9 51.6
17:10 1019 30.09 849 25.07 23.6 74.5 41 9.7 49.4
17:15 1020 30.12 849 25.07 23.3 74 40 9.1 48.4
17:20 1020 30.12 849 25.07 23.1 73.5 43 9.9 49.8
17:25 1020 30.12 849 25.07 22.7 72.9 46 10.7 51.3
17:30 1020 30.12 849 25.07 22 71.6 49 10.9 51.6
17:35 1020 30.12 849 25.07 21.7 71.1 50 10.9 51.6
17:40 1020 30.12 849 25.07 21.7 71 51 11.1 52
17:45 1019 30.09 849 25.07 21.6 70.9 51 11.2 52.2
17:50 1019 30.09 848 25.04 21.6 71 50 11 51.7
17:55 1019 30.09 848 25.04 22 71.5 47 10.2 50.3
18:00 1019 30.09 848 25.04 22.5 72.5 44 9.8 49.6
18:05 1019 30.09 848 25.04 22.8 73 43 9.9 49.8
18:10 1019 30.09 848 25.04 22.8 73.1 44 10 50
18:15 1019 30.09 848 25.04 22.9 73.2 43 9.8 49.6
18:20 1019 30.09 848 25.04 22.9 73.3 43 9.8 49.6
18:25 1019 30.09 848 25.04 23.2 73.8 48 11.9 53.4
18:30 1019 30.09 848 25.04 22.5 72.4 51 11.9 53.4
18:35 1019 30.09 848 25.04 22.1 71.8 51 11.7 53.1
18:40 1019 30.09 848 25.04 22.4 72.3 48 11 51.8
18:45 1019 30.09 848 25.04 22.8 73.1 46 10.7 51.2
18:50 1019 30.09 848 25.04 23.2 73.7 45 10.7 51.3
18:55 1019 30.09 848 25.04 23.4 74 43 10.4 50.7
19:00 1019 30.09 848 25.04 23.7 74.6 44 10.9 51.6
19:05 1019 30.09 848 25.04 23.4 74.2 44 10.6 51.1
19:10 1019 30.09 848 25.04 23.5 74.3 43 10.4 50.7
19:15 1018 30.06 848 25.04 23.5 74.3 43 10.5 50.9
19:20 1018 30.06 848 25.04 23.4 74.2 43 10.3 50.5
19:25 1018 30.06 848 25.04 23.3 74 43 10.2 50.3
19:30 1018 30.06 848 25.04 23.2 73.7 43 10.2 50.3
19:35 1018 30.06 848 25.04 23.1 73.6 43 10.1 50.2
19:40 1019 30.09 848 25.04 23.1 73.5 44 10.2 50.4
19:45 1019 30.09 848 25.04 23 73.5 44 10.3 50.5
19:50 1018 30.06 848 25.04 23 73.4 44 10.3 50.5
19:55 1018 30.06 848 25.04 22.8 73 44 10.1 50.2
20:00 1018 30.06 848 25.04 22.7 72.8 47 10.9 51.7
20:05 1018 30.06 848 25.04 22.6 72.7 47 11 51.8
20:10 1018 30.06 848 25.04 22.5 72.5 49 11.4 52.5
20:15 1018 30.06 847 25.01 22.4 72.3 55 13 55.5
20:20 1018 30.06 847 25.01 22 71.7 55 12.8 55
20:25 1018 30.06 848 25.04 21.8 71.3 54 12.2 53.9
20:30 1018 30.06 848 25.04 21.7 71.1 61 13.9 57
20:35 1018 30.06 847 25.01 21.3 70.3 61 13.5 56.2
20:40 1018 30.06 847 25.01 20.7 69.2 63 13.5 56.2
20:45 1018 30.06 847 25.01 20.3 68.5 67 14.1 57.3
20:50 1018 30.06 847 25.01 20.1 68.2 65 13.5 56.2
20:55 1018 30.06 847 25.01 20 68 66 13.4 56.2
21:00 1018 30.06 847 25.01 20.1 68.1 59 12 53.6
21:05 1018 30.06 847 25.01 20.4 68.7 67 14.1 57.3
21:10 1018 30.06 847 25.01 20.2 68.3 64 13.2 55.7
21:15 1018 30.06 847 25.01 19.7 67.5 66 13.2 55.8
21:20 1018 30.06 847 25.01 19.7 67.5 64 12.8 55
21:25 1018 30.06 847 25.01 19.6 67.3 60 11.8 53.2
21:30 1018 30.06 847 25.01 19.9 67.7 60 12 53.5
21:35 1018 30.06 847 25.01 19.7 67.4 58 11.4 52.5
21:40 1018 30.06 847 25.01 19.6 67.4 58 11.2 52.1
21:45 1018 30.06 847 25.01 19.5 67 58 11.1 52
21:50 1018 30.06 848 25.04 19.2 66.5 58 10.9 51.6
21:55 1019 30.09 848 25.04 19.3 66.7 57 10.7 51.3
22:00 1019 30.09 848 25.04 19.3 66.7 56 10.3 50.5
22:05 1019 30.09 848 25.04 19.3 66.8 57 10.7 51.2
22:10 1019 30.09 848 25.04 19.1 66.4 56 10.2 50.3
22:15 1019 30.09 848 25.04 19 66.2 56 10.1 50.2
22:20 1019 30.09 848 25.04 19.1 66.3 56 10.1 50.2
22:25 1019 30.09 848 25.04 19.1 66.3 56 10.1 50.3
22:30 1019 30.09 848 25.04 19.3 66.7 55 10.2 50.4
22:35 1019 30.09 848 25.04 19.2 66.5 60 11.3 52.3
22:40 1019 30.09 848 25.04 18.6 65.5 60 10.7 51.3
22:45 1019 30.09 848 25.04 18.6 65.5 59 10.5 50.9
22:50 1019 30.09 848 25.04 18.4 65.2 59 10.3 50.5
22:55 1019 30.09 848 25.04 18.3 65 59 10.2 50.3
23:00 1019 30.09 848 25.04 18.6 65.4 57 10.1 50.1
23:05 1019 30.09 848 25.04 18.7 65.7 57 10.1 50.3
23:10 1019 30.09 848 25.04 18.6 65.4 57 10.1 50.2
23:15 1019 30.09 848 25.04 18.3 64.9 57 9.8 49.7
23:20 1019 30.09 848 25.04 18.1 64.7 57 9.7 49.5
23:25 1019 30.09 848 25.04 18.2 64.8 57 9.6 49.3
23:30 1019 30.09 848 25.04 18.4 65.2 58 10.1 50.2
23:35 1019 30.09 849 25.07 18.2 64.8 62 11 51.7
23:40 1019 30.09 849 25.07 17.6 63.6 64 10.8 51.5
23:45 1020 30.12 849 25.07 17.4 63.3 65 10.9 51.6
23:50 1019 30.09 849 25.07 17.3 63.2 65 10.8 51.4
23:55 1019 30.09 849 25.07 17.2 63 65 10.7 51.3
24:00 1019 30.09 849 25.07 17.5 63.5 63 10.5 50.8